Wednesday, September 24, 2014
00:31 UTC
  |  Log In   |  Register Free
Airport Search:

Gainesville Municipal Airport
(KGLE)

FAA data valid effective September 18, 2014 - November 13, 2014 (unless otherwise noted).

 
 
 
 
 
 
 
 
 
 
 
 
 
 

Current Aviation Weather for Gainesville Municipal Airport (KGLE)

The most recent METAR observation for KGLE was updated at: 0009
METAR Summary (Translated METAR)
KGLE
232355Z AUTO 08004KT 10SM CLR 26/09 A3010 RMK AO2 T02560086 10275 20241
KGYI
232355Z AUTO 08005KT 10SM CLR 25/09 A3011 RMK AO2 T02460092 10273 20246
(26.4 nm NE from KGLE)
KDTO
232353Z 11007KT 10SM CLR 27/07 A3007 RMK AO2 SLP177 T02670067 10289 20250 56011
(27 nm SW from KGLE)
TAF
No TAF information found within 50 nm of KGLE
  Airport Weather Conditions for KGLE

 Current Weather at GLE
78° F
Fair
East winds at 4.6 mph
GLE NOAA Radar

Pressure: 30.10 in
Humidity: 34%
Wind: East at 4.6 MPH (4 KT)
Dew Point: 47.5°F
Visibility: 10.00 mi


Airport Weather Forecast for KGLE

Translated METAR and TAF for KGLE
Translated METAR for KGLE (0025 UTC 24 September 2014)
found at http://aviationweather.gov/adds/metars/
 
METAR text: KGLE 240015Z AUTO 06005KT 10SM CLR 24/10 A3011 RMK AO2 T02400102
Conditions at: KGLE (GAINESVILLE , TX, US) observed 0015 UTC 24 September 2014
Temperature: 24.0°C (75°F)
Dewpoint: 10.2°C (50°F) [RH = 42%]
Pressure (altimeter): 30.11 inches Hg (1019.7 mb)
Winds: from the ENE (60 degrees) at 6 MPH (5 knots; 2.6 m/s)
Visibility: 10 or more miles (16+ km)
Ceiling: at least 12,000 feet AGL
Clouds: sky clear below 12,000 feet AGL
Weather: automated observation with no human augmentation;
there may or may not be significant weather present at this time
Translated TAF for KGLE

There is no translated TAF available for this airport

Find All Airport Services Find A Hotel Find A Rental Car Find A Golf Course Find A Restaurant $100 Hamburger



FBO's on the Field
FBO Company Facility Photos Services Transportation Aviation Fuel Prices: Prices include tax
Catering Weather Repair Courtesy Rental Type 100LL JetA JetA+ MOGAS 8087
 
City of Gainesville Municipal Airport

This FBO has not yet been rated
FS:Phillips66
Last Updated: Sep-20
Login to update fuel prices
SS:
Contact City of Gainesville Municipal AirportMore FBO Information
 
Add another FBO Facility Photos Catering Weather Repair Courtesy Rental Type 100LL JetA JetA+ MOGAS 8087
Services Transportation Aviation Fuel Prices: Prices include tax


model-print
model-print
model-print
model-print